sensor_id;sensor_type;location;lat;lon;timestamp;P1;durP1;ratioP1;P2;durP2;ratioP2
81807;SDS011;71241;13.676;100.700;2023-07-22T00:00:27;9.65;;;8.40;;
81807;SDS011;71241;13.676;100.700;2023-07-22T00:02:58;10.68;;;8.95;;
81807;SDS011;71241;13.676;100.700;2023-07-22T00:05:29;12.25;;;9.00;;
81807;SDS011;71241;13.676;100.700;2023-07-22T00:08:00;10.60;;;8.25;;
81807;SDS011;71241;13.676;100.700;2023-07-22T00:13:40;13.60;;;12.25;;
81807;SDS011;71241;13.676;100.700;2023-07-22T00:16:14;11.55;;;10.02;;
81807;SDS011;71241;13.676;100.700;2023-07-22T00:18:46;14.52;;;11.57;;
81807;SDS011;71241;13.676;100.700;2023-07-22T00:21:17;15.65;;;11.25;;
81807;SDS011;71241;13.676;100.700;2023-07-22T00:23:47;15.77;;;9.77;;
81807;SDS011;71241;13.676;100.700;2023-07-22T00:26:19;13.70;;;10.05;;
81807;SDS011;71241;13.676;100.700;2023-07-22T00:28:50;12.00;;;8.88;;
81807;SDS011;71241;13.676;100.700;2023-07-22T00:31:22;10.90;;;9.50;;
81807;SDS011;71241;13.676;100.700;2023-07-22T00:33:53;11.60;;;9.40;;
81807;SDS011;71241;13.676;100.700;2023-07-22T00:36:23;11.55;;;9.75;;
81807;SDS011;71241;13.676;100.700;2023-07-22T00:38:55;15.40;;;10.27;;
81807;SDS011;71241;13.676;100.700;2023-07-22T00:44:33;10.88;;;9.52;;
81807;SDS011;71241;13.676;100.700;2023-07-22T00:47:07;12.32;;;10.32;;
81807;SDS011;71241;13.676;100.700;2023-07-22T00:49:38;9.07;;;7.72;;
81807;SDS011;71241;13.676;100.700;2023-07-22T00:52:09;11.95;;;9.35;;
81807;SDS011;71241;13.676;100.700;2023-07-22T00:54:40;11.82;;;9.25;;
81807;SDS011;71241;13.676;100.700;2023-07-22T00:57:10;12.43;;;10.27;;
81807;SDS011;71241;13.676;100.700;2023-07-22T00:59:41;12.10;;;8.57;;
81807;SDS011;71241;13.676;100.700;2023-07-22T01:02:13;12.20;;;10.05;;
81807;SDS011;71241;13.676;100.700;2023-07-22T01:04:44;12.00;;;10.32;;
81807;SDS011;71241;13.676;100.700;2023-07-22T01:10:13;22.25;;;20.30;;
81807;SDS011;71241;13.676;100.700;2023-07-22T01:12:44;11.13;;;9.85;;
81807;SDS011;71241;13.676;100.700;2023-07-22T01:15:15;10.43;;;9.23;;
81807;SDS011;71241;13.676;100.700;2023-07-22T01:17:48;13.60;;;10.35;;
81807;SDS011;71241;13.676;100.700;2023-07-22T01:20:20;10.15;;;9.20;;
81807;SDS011;71241;13.676;100.700;2023-07-22T01:22:53;15.73;;;14.48;;
81807;SDS011;71241;13.676;100.700;2023-07-22T01:25:25;12.00;;;11.05;;
81807;SDS011;71241;13.676;100.700;2023-07-22T01:27:58;12.13;;;10.90;;
81807;SDS011;71241;13.676;100.700;2023-07-22T01:30:29;12.02;;;9.02;;
81807;SDS011;71241;13.676;100.700;2023-07-22T01:33:06;13.60;;;12.32;;
81807;SDS011;71241;13.676;100.700;2023-07-22T01:35:40;30.65;;;28.40;;
81807;SDS011;71241;13.676;100.700;2023-07-22T01:38:12;29.33;;;27.20;;
81807;SDS011;71241;13.676;100.700;2023-07-22T01:40:43;7.43;;;6.68;;
81807;SDS011;71241;13.676;100.700;2023-07-22T01:43:13;9.40;;;8.13;;
81807;SDS011;71241;13.676;100.700;2023-07-22T01:45:44;27.13;;;24.88;;
81807;SDS011;71241;13.676;100.700;2023-07-22T01:48:15;10.32;;;9.18;;
81807;SDS011;71241;13.676;100.700;2023-07-22T01:50:45;8.63;;;5.63;;
81807;SDS011;71241;13.676;100.700;2023-07-22T01:53:18;9.98;;;6.40;;
81807;SDS011;71241;13.676;100.700;2023-07-22T01:55:49;13.70;;;12.90;;
81807;SDS011;71241;13.676;100.700;2023-07-22T01:58:20;31.70;;;29.63;;
81807;SDS011;71241;13.676;100.700;2023-07-22T02:00:50;15.20;;;14.20;;
81807;SDS011;71241;13.676;100.700;2023-07-22T02:03:21;9.02;;;7.97;;
81807;SDS011;71241;13.676;100.700;2023-07-22T02:05:52;7.35;;;6.65;;
81807;SDS011;71241;13.676;100.700;2023-07-22T02:08:25;7.88;;;7.20;;
81807;SDS011;71241;13.676;100.700;2023-07-22T02:10:56;6.60;;;5.15;;
81807;SDS011;71241;13.676;100.700;2023-07-22T02:13:33;7.30;;;5.00;;
81807;SDS011;71241;13.676;100.700;2023-07-22T02:16:04;5.63;;;5.05;;
81807;SDS011;71241;13.676;100.700;2023-07-22T02:18:36;5.93;;;5.32;;
81807;SDS011;71241;13.676;100.700;2023-07-22T02:21:12;7.20;;;5.45;;
81807;SDS011;71241;13.676;100.700;2023-07-22T02:23:48;6.60;;;5.97;;
81807;SDS011;71241;13.676;100.700;2023-07-22T02:26:18;6.38;;;5.05;;
81807;SDS011;71241;13.676;100.700;2023-07-22T02:28:54;18.65;;;17.52;;
81807;SDS011;71241;13.676;100.700;2023-07-22T02:33:56;5.28;;;4.47;;
81807;SDS011;71241;13.676;100.700;2023-07-22T02:36:27;6.13;;;4.53;;
81807;SDS011;71241;13.676;100.700;2023-07-22T02:38:59;4.55;;;4.15;;
81807;SDS011;71241;13.676;100.700;2023-07-22T02:41:32;6.80;;;4.28;;
81807;SDS011;71241;13.676;100.700;2023-07-22T02:44:05;5.70;;;5.20;;
81807;SDS011;71241;13.676;100.700;2023-07-22T02:46:35;7.93;;;4.97;;
81807;SDS011;71241;13.676;100.700;2023-07-22T02:49:06;6.25;;;5.47;;
81807;SDS011;71241;13.676;100.700;2023-07-22T02:51:37;6.40;;;5.63;;
81807;SDS011;71241;13.676;100.700;2023-07-22T02:54:09;5.95;;;4.93;;
81807;SDS011;71241;13.676;100.700;2023-07-22T02:56:40;5.63;;;5.13;;
81807;SDS011;71241;13.676;100.700;2023-07-22T02:59:11;5.90;;;5.35;;
81807;SDS011;71241;13.676;100.700;2023-07-22T03:01:41;5.07;;;4.50;;
81807;SDS011;71241;13.676;100.700;2023-07-22T03:04:12;5.25;;;4.75;;
81807;SDS011;71241;13.676;100.700;2023-07-22T03:06:43;5.55;;;4.65;;
81807;SDS011;71241;13.676;100.700;2023-07-22T03:09:15;5.13;;;4.13;;
81807;SDS011;71241;13.676;100.700;2023-07-22T03:11:46;5.78;;;4.82;;
81807;SDS011;71241;13.676;100.700;2023-07-22T03:14:17;7.43;;;4.72;;
81807;SDS011;71241;13.676;100.700;2023-07-22T03:16:48;6.78;;;5.00;;
81807;SDS011;71241;13.676;100.700;2023-07-22T03:19:19;5.10;;;4.55;;
81807;SDS011;71241;13.676;100.700;2023-07-22T03:21:50;4.50;;;4.10;;
81807;SDS011;71241;13.676;100.700;2023-07-22T03:24:22;5.30;;;4.32;;
81807;SDS011;71241;13.676;100.700;2023-07-22T03:26:56;8.15;;;4.43;;
81807;SDS011;71241;13.676;100.700;2023-07-22T03:29:27;6.32;;;4.13;;
81807;SDS011;71241;13.676;100.700;2023-07-22T03:31:58;7.20;;;4.00;;
81807;SDS011;71241;13.676;100.700;2023-07-22T03:34:29;5.35;;;3.80;;
81807;SDS011;71241;13.676;100.700;2023-07-22T03:37:00;6.75;;;4.15;;
81807;SDS011;71241;13.676;100.700;2023-07-22T03:39:33;6.05;;;3.50;;
81807;SDS011;71241;13.676;100.700;2023-07-22T03:44:34;7.20;;;4.30;;
81807;SDS011;71241;13.676;100.700;2023-07-22T03:47:05;7.95;;;7.28;;
81807;SDS011;71241;13.676;100.700;2023-07-22T03:52:09;7.72;;;7.05;;
81807;SDS011;71241;13.676;100.700;2023-07-22T03:54:45;6.38;;;5.30;;
81807;SDS011;71241;13.676;100.700;2023-07-22T03:57:15;6.43;;;3.92;;
81807;SDS011;71241;13.676;100.700;2023-07-22T03:59:46;11.73;;;11.02;;
81807;SDS011;71241;13.676;100.700;2023-07-22T04:02:17;7.97;;;7.20;;
81807;SDS011;71241;13.676;100.700;2023-07-22T04:04:48;8.15;;;7.40;;
81807;SDS011;71241;13.676;100.700;2023-07-22T04:07:19;7.20;;;6.72;;
81807;SDS011;71241;13.676;100.700;2023-07-22T04:09:51;6.90;;;6.18;;
81807;SDS011;71241;13.676;100.700;2023-07-22T04:12:22;5.55;;;3.90;;
81807;SDS011;71241;13.676;100.700;2023-07-22T04:14:53;7.88;;;4.57;;
81807;SDS011;71241;13.676;100.700;2023-07-22T04:17:24;6.63;;;4.22;;
81807;SDS011;71241;13.676;100.700;2023-07-22T04:19:55;6.18;;;3.38;;
81807;SDS011;71241;13.676;100.700;2023-07-22T04:22:27;5.88;;;3.75;;
81807;SDS011;71241;13.676;100.700;2023-07-22T04:25:00;6.50;;;3.80;;
81807;SDS011;71241;13.676;100.700;2023-07-22T04:27:31;4.95;;;4.13;;
81807;SDS011;71241;13.676;100.700;2023-07-22T04:30:01;8.63;;;4.18;;
81807;SDS011;71241;13.676;100.700;2023-07-22T04:32:32;5.80;;;3.38;;
81807;SDS011;71241;13.676;100.700;2023-07-22T04:35:03;6.60;;;3.65;;
81807;SDS011;71241;13.676;100.700;2023-07-22T04:37:35;5.25;;;3.47;;
81807;SDS011;71241;13.676;100.700;2023-07-22T04:40:08;16.98;;;15.85;;
81807;SDS011;71241;13.676;100.700;2023-07-22T04:42:45;4.78;;;3.55;;
81807;SDS011;71241;13.676;100.700;2023-07-22T04:45:16;8.23;;;3.90;;
81807;SDS011;71241;13.676;100.700;2023-07-22T04:47:50;7.03;;;3.97;;
81807;SDS011;71241;13.676;100.700;2023-07-22T04:50:21;5.40;;;3.70;;
81807;SDS011;71241;13.676;100.700;2023-07-22T04:52:51;6.47;;;3.92;;
81807;SDS011;71241;13.676;100.700;2023-07-22T04:55:23;6.28;;;4.57;;
81807;SDS011;71241;13.676;100.700;2023-07-22T04:57:55;8.65;;;3.92;;
81807;SDS011;71241;13.676;100.700;2023-07-22T05:00:28;6.38;;;3.90;;
81807;SDS011;71241;13.676;100.700;2023-07-22T05:02:58;8.48;;;3.92;;
81807;SDS011;71241;13.676;100.700;2023-07-22T05:05:29;4.93;;;3.25;;
81807;SDS011;71241;13.676;100.700;2023-07-22T05:08:00;6.88;;;4.00;;
81807;SDS011;71241;13.676;100.700;2023-07-22T05:10:33;6.50;;;4.05;;
81807;SDS011;71241;13.676;100.700;2023-07-22T05:13:04;5.18;;;3.53;;
81807;SDS011;71241;13.676;100.700;2023-07-22T05:15:34;5.43;;;2.85;;
81807;SDS011;71241;13.676;100.700;2023-07-22T05:18:08;5.75;;;3.72;;
81807;SDS011;71241;13.676;100.700;2023-07-22T05:20:39;6.72;;;3.47;;
81807;SDS011;71241;13.676;100.700;2023-07-22T05:23:10;5.18;;;3.05;;
81807;SDS011;71241;13.676;100.700;2023-07-22T05:25:43;4.32;;;3.33;;
81807;SDS011;71241;13.676;100.700;2023-07-22T05:28:14;5.13;;;3.63;;
81807;SDS011;71241;13.676;100.700;2023-07-22T05:30:44;5.88;;;3.40;;
81807;SDS011;71241;13.676;100.700;2023-07-22T05:33:15;5.13;;;2.95;;
81807;SDS011;71241;13.676;100.700;2023-07-22T05:35:46;8.40;;;3.63;;
81807;SDS011;71241;13.676;100.700;2023-07-22T05:38:16;5.13;;;3.63;;
81807;SDS011;71241;13.676;100.700;2023-07-22T05:40:49;3.72;;;3.13;;
81807;SDS011;71241;13.676;100.700;2023-07-22T05:43:21;5.32;;;3.15;;
81807;SDS011;71241;13.676;100.700;2023-07-22T05:45:51;5.05;;;3.50;;
81807;SDS011;71241;13.676;100.700;2023-07-22T05:48:22;4.65;;;3.97;;
81807;SDS011;71241;13.676;100.700;2023-07-22T05:50:52;7.32;;;4.13;;
81807;SDS011;71241;13.676;100.700;2023-07-22T05:53:23;5.13;;;3.65;;
81807;SDS011;71241;13.676;100.700;2023-07-22T05:55:55;4.85;;;3.42;;
81807;SDS011;71241;13.676;100.700;2023-07-22T05:58:26;7.32;;;3.75;;
81807;SDS011;71241;13.676;100.700;2023-07-22T06:00:56;6.43;;;4.45;;
81807;SDS011;71241;13.676;100.700;2023-07-22T06:03:27;6.00;;;4.38;;
81807;SDS011;71241;13.676;100.700;2023-07-22T06:05:58;7.68;;;4.82;;
81807;SDS011;71241;13.676;100.700;2023-07-22T06:08:28;7.82;;;4.50;;
81807;SDS011;71241;13.676;100.700;2023-07-22T06:11:01;6.60;;;3.78;;
81807;SDS011;71241;13.676;100.700;2023-07-22T06:13:31;7.10;;;4.20;;
81807;SDS011;71241;13.676;100.700;2023-07-22T06:16:02;5.53;;;3.65;;
81807;SDS011;71241;13.676;100.700;2023-07-22T06:18:33;8.15;;;4.60;;
81807;SDS011;71241;13.676;100.700;2023-07-22T06:21:04;11.25;;;6.38;;
81807;SDS011;71241;13.676;100.700;2023-07-22T06:23:35;18.70;;;13.05;;
81807;SDS011;71241;13.676;100.700;2023-07-22T06:26:07;19.90;;;14.57;;
81807;SDS011;71241;13.676;100.700;2023-07-22T06:28:38;17.65;;;14.70;;
81807;SDS011;71241;13.676;100.700;2023-07-22T06:31:09;22.98;;;14.63;;
81807;SDS011;71241;13.676;100.700;2023-07-22T06:33:39;20.55;;;18.65;;
81807;SDS011;71241;13.676;100.700;2023-07-22T06:36:10;16.55;;;12.90;;
81807;SDS011;71241;13.676;100.700;2023-07-22T06:38:41;15.45;;;11.75;;
81807;SDS011;71241;13.676;100.700;2023-07-22T06:41:14;14.77;;;12.52;;
81807;SDS011;71241;13.676;100.700;2023-07-22T06:43:44;15.43;;;13.27;;
81807;SDS011;71241;13.676;100.700;2023-07-22T06:46:15;14.23;;;10.93;;
81807;SDS011;71241;13.676;100.700;2023-07-22T06:48:46;16.55;;;11.98;;
81807;SDS011;71241;13.676;100.700;2023-07-22T06:51:17;15.95;;;11.25;;
81807;SDS011;71241;13.676;100.700;2023-07-22T06:53:48;13.60;;;11.45;;
81807;SDS011;71241;13.676;100.700;2023-07-22T06:56:20;16.00;;;12.20;;
81807;SDS011;71241;13.676;100.700;2023-07-22T06:58:51;16.60;;;11.25;;
81807;SDS011;71241;13.676;100.700;2023-07-22T07:01:22;14.48;;;10.32;;
81807;SDS011;71241;13.676;100.700;2023-07-22T07:03:52;14.32;;;11.27;;
81807;SDS011;71241;13.676;100.700;2023-07-22T07:06:23;17.00;;;13.43;;
81807;SDS011;71241;13.676;100.700;2023-07-22T07:08:54;16.80;;;13.32;;
81807;SDS011;71241;13.676;100.700;2023-07-22T07:11:27;14.48;;;12.95;;
81807;SDS011;71241;13.676;100.700;2023-07-22T07:13:58;15.48;;;10.85;;
81807;SDS011;71241;13.676;100.700;2023-07-22T07:16:30;14.25;;;10.40;;
81807;SDS011;71241;13.676;100.700;2023-07-22T07:19:01;17.27;;;10.93;;
81807;SDS011;71241;13.676;100.700;2023-07-22T07:21:34;16.83;;;13.63;;
81807;SDS011;71241;13.676;100.700;2023-07-22T07:24:05;13.52;;;11.02;;
81807;SDS011;71241;13.676;100.700;2023-07-22T07:26:37;14.13;;;11.13;;
81807;SDS011;71241;13.676;100.700;2023-07-22T07:29:08;15.25;;;11.35;;
81807;SDS011;71241;13.676;100.700;2023-07-22T07:32:09;12.73;;;9.20;;
81807;SDS011;71241;13.676;100.700;2023-07-22T07:34:40;12.88;;;9.40;;
81807;SDS011;71241;13.676;100.700;2023-07-22T07:37:14;14.60;;;9.68;;
81807;SDS011;71241;13.676;100.700;2023-07-22T07:39:55;11.52;;;9.65;;
81807;SDS011;71241;13.676;100.700;2023-07-22T07:42:46;11.60;;;9.18;;
81807;SDS011;71241;13.676;100.700;2023-07-22T07:45:33;12.05;;;9.50;;
81807;SDS011;71241;13.676;100.700;2023-07-22T07:48:04;12.32;;;9.77;;
81807;SDS011;71241;13.676;100.700;2023-07-22T07:53:05;12.35;;;9.05;;
81807;SDS011;71241;13.676;100.700;2023-07-22T07:55:36;16.58;;;10.60;;
81807;SDS011;71241;13.676;100.700;2023-07-22T07:58:08;13.73;;;9.40;;
81807;SDS011;71241;13.676;100.700;2023-07-22T08:00:39;14.43;;;10.07;;
81807;SDS011;71241;13.676;100.700;2023-07-22T08:03:10;12.68;;;9.45;;
81807;SDS011;71241;13.676;100.700;2023-07-22T08:05:40;11.27;;;9.52;;
81807;SDS011;71241;13.676;100.700;2023-07-22T08:08:11;14.02;;;9.50;;
81807;SDS011;71241;13.676;100.700;2023-07-22T08:10:42;13.20;;;8.75;;
81807;SDS011;71241;13.676;100.700;2023-07-22T08:13:15;18.42;;;13.93;;
81807;SDS011;71241;13.676;100.700;2023-07-22T08:15:45;12.43;;;9.73;;
81807;SDS011;71241;13.676;100.700;2023-07-22T08:18:17;10.52;;;8.38;;
81807;SDS011;71241;13.676;100.700;2023-07-22T08:20:51;11.00;;;8.27;;
81807;SDS011;71241;13.676;100.700;2023-07-22T08:23:21;10.23;;;8.15;;
81807;SDS011;71241;13.676;100.700;2023-07-22T08:25:52;10.55;;;7.45;;
81807;SDS011;71241;13.676;100.700;2023-07-22T08:28:26;14.93;;;7.50;;
81807;SDS011;71241;13.676;100.700;2023-07-22T08:31:04;11.82;;;9.07;;
81807;SDS011;71241;13.676;100.700;2023-07-22T08:33:35;9.10;;;6.93;;
81807;SDS011;71241;13.676;100.700;2023-07-22T08:36:08;10.35;;;6.93;;
81807;SDS011;71241;13.676;100.700;2023-07-22T08:38:39;14.25;;;12.93;;
81807;SDS011;71241;13.676;100.700;2023-07-22T08:41:13;15.27;;;13.68;;
81807;SDS011;71241;13.676;100.700;2023-07-22T08:43:47;11.13;;;6.97;;
81807;SDS011;71241;13.676;100.700;2023-07-22T08:46:18;8.75;;;7.00;;
81807;SDS011;71241;13.676;100.700;2023-07-22T08:48:51;10.15;;;7.07;;
81807;SDS011;71241;13.676;100.700;2023-07-22T08:51:23;11.82;;;10.70;;
81807;SDS011;71241;13.676;100.700;2023-07-22T08:53:57;9.02;;;7.00;;
81807;SDS011;71241;13.676;100.700;2023-07-22T08:56:38;11.75;;;10.65;;
81807;SDS011;71241;13.676;100.700;2023-07-22T08:59:11;10.65;;;7.53;;
81807;SDS011;71241;13.676;100.700;2023-07-22T09:01:43;11.35;;;10.25;;
81807;SDS011;71241;13.676;100.700;2023-07-22T09:04:14;14.35;;;11.63;;
81807;SDS011;71241;13.676;100.700;2023-07-22T09:06:45;15.25;;;9.85;;
81807;SDS011;71241;13.676;100.700;2023-07-22T09:09:16;10.73;;;7.45;;
81807;SDS011;71241;13.676;100.700;2023-07-22T09:11:47;11.55;;;7.50;;
81807;SDS011;71241;13.676;100.700;2023-07-22T09:14:20;10.55;;;7.13;;
81807;SDS011;71241;13.676;100.700;2023-07-22T09:17:04;12.68;;;6.93;;
81807;SDS011;71241;13.676;100.700;2023-07-22T09:19:35;7.15;;;5.85;;
81807;SDS011;71241;13.676;100.700;2023-07-22T09:22:07;10.73;;;6.30;;
81807;SDS011;71241;13.676;100.700;2023-07-22T09:24:37;9.60;;;6.07;;
81807;SDS011;71241;13.676;100.700;2023-07-22T09:27:08;10.05;;;5.93;;
81807;SDS011;71241;13.676;100.700;2023-07-22T09:29:41;10.55;;;6.47;;
81807;SDS011;71241;13.676;100.700;2023-07-22T09:32:13;8.52;;;5.93;;
81807;SDS011;71241;13.676;100.700;2023-07-22T09:34:54;7.35;;;6.07;;
81807;SDS011;71241;13.676;100.700;2023-07-22T09:37:28;10.30;;;5.72;;
81807;SDS011;71241;13.676;100.700;2023-07-22T09:40:13;9.98;;;5.95;;
81807;SDS011;71241;13.676;100.700;2023-07-22T09:42:46;9.27;;;5.72;;
81807;SDS011;71241;13.676;100.700;2023-07-22T09:45:20;10.13;;;5.43;;
81807;SDS011;71241;13.676;100.700;2023-07-22T09:47:52;9.98;;;5.55;;
81807;SDS011;71241;13.676;100.700;2023-07-22T09:50:23;9.77;;;5.90;;
81807;SDS011;71241;13.676;100.700;2023-07-22T09:52:55;12.15;;;6.28;;
81807;SDS011;71241;13.676;100.700;2023-07-22T09:57:58;9.40;;;5.60;;
81807;SDS011;71241;13.676;100.700;2023-07-22T10:00:33;8.60;;;5.72;;
81807;SDS011;71241;13.676;100.700;2023-07-22T10:03:04;8.27;;;5.50;;
81807;SDS011;71241;13.676;100.700;2023-07-22T10:05:41;8.82;;;5.88;;
81807;SDS011;71241;13.676;100.700;2023-07-22T10:08:13;8.20;;;5.93;;
81807;SDS011;71241;13.676;100.700;2023-07-22T10:10:44;7.70;;;5.97;;
81807;SDS011;71241;13.676;100.700;2023-07-22T10:13:15;12.68;;;6.10;;
81807;SDS011;71241;13.676;100.700;2023-07-22T10:15:48;12.75;;;6.28;;
81807;SDS011;71241;13.676;100.700;2023-07-22T10:18:19;10.63;;;5.50;;
81807;SDS011;71241;13.676;100.700;2023-07-22T10:20:52;5.85;;;4.85;;
81807;SDS011;71241;13.676;100.700;2023-07-22T10:23:23;9.77;;;5.28;;
81807;SDS011;71241;13.676;100.700;2023-07-22T10:25:56;8.70;;;4.57;;
81807;SDS011;71241;13.676;100.700;2023-07-22T10:28:27;7.72;;;5.28;;
81807;SDS011;71241;13.676;100.700;2023-07-22T10:31:00;6.47;;;4.45;;
81807;SDS011;71241;13.676;100.700;2023-07-22T10:33:32;4.30;;;3.90;;
81807;SDS011;71241;13.676;100.700;2023-07-22T10:36:03;6.10;;;3.90;;
81807;SDS011;71241;13.676;100.700;2023-07-22T10:38:35;6.28;;;4.10;;
81807;SDS011;71241;13.676;100.700;2023-07-22T10:41:13;6.13;;;4.15;;
81807;SDS011;71241;13.676;100.700;2023-07-22T10:43:53;5.72;;;4.32;;
81807;SDS011;71241;13.676;100.700;2023-07-22T10:46:33;8.20;;;4.28;;
81807;SDS011;71241;13.676;100.700;2023-07-22T10:49:10;5.85;;;4.13;;
81807;SDS011;71241;13.676;100.700;2023-07-22T10:51:41;7.82;;;5.30;;
81807;SDS011;71241;13.676;100.700;2023-07-22T10:54:31;8.13;;;4.68;;
81807;SDS011;71241;13.676;100.700;2023-07-22T10:57:03;7.80;;;4.70;;
81807;SDS011;71241;13.676;100.700;2023-07-22T10:59:34;17.70;;;16.13;;
81807;SDS011;71241;13.676;100.700;2023-07-22T11:02:08;7.60;;;5.00;;
81807;SDS011;71241;13.676;100.700;2023-07-22T11:04:56;9.68;;;5.50;;
81807;SDS011;71241;13.676;100.700;2023-07-22T11:10:18;9.35;;;5.63;;
81807;SDS011;71241;13.676;100.700;2023-07-22T11:12:49;9.25;;;5.60;;
81807;SDS011;71241;13.676;100.700;2023-07-22T11:15:19;8.90;;;6.35;;
81807;SDS011;71241;13.676;100.700;2023-07-22T11:17:54;11.10;;;7.10;;
81807;SDS011;71241;13.676;100.700;2023-07-22T11:20:25;9.07;;;6.90;;
81807;SDS011;71241;13.676;100.700;2023-07-22T11:22:55;11.15;;;6.43;;
81807;SDS011;71241;13.676;100.700;2023-07-22T11:25:27;10.45;;;6.10;;
81807;SDS011;71241;13.676;100.700;2023-07-22T11:27:58;7.93;;;6.45;;
81807;SDS011;71241;13.676;100.700;2023-07-22T11:30:28;19.83;;;9.52;;
81807;SDS011;71241;13.676;100.700;2023-07-22T11:33:01;18.88;;;11.48;;
81807;SDS011;71241;13.676;100.700;2023-07-22T11:35:32;15.65;;;10.10;;
81807;SDS011;71241;13.676;100.700;2023-07-22T11:38:03;12.23;;;8.60;;
81807;SDS011;71241;13.676;100.700;2023-07-22T11:40:34;15.90;;;8.00;;
81807;SDS011;71241;13.676;100.700;2023-07-22T11:43:05;14.77;;;8.68;;
81807;SDS011;71241;13.676;100.700;2023-07-22T11:45:38;13.23;;;9.25;;
81807;SDS011;71241;13.676;100.700;2023-07-22T11:48:11;17.08;;;10.77;;
81807;SDS011;71241;13.676;100.700;2023-07-22T11:50:43;15.73;;;9.10;;
81807;SDS011;71241;13.676;100.700;2023-07-22T11:53:14;13.75;;;9.45;;
81807;SDS011;71241;13.676;100.700;2023-07-22T11:55:45;16.77;;;9.10;;
81807;SDS011;71241;13.676;100.700;2023-07-22T11:58:23;11.95;;;8.50;;
81807;SDS011;71241;13.676;100.700;2023-07-22T12:01:05;14.07;;;9.30;;
81807;SDS011;71241;13.676;100.700;2023-07-22T12:03:39;22.42;;;20.42;;
81807;SDS011;71241;13.676;100.700;2023-07-22T12:06:10;25.50;;;23.27;;
81807;SDS011;71241;13.676;100.700;2023-07-22T12:08:45;15.35;;;7.78;;
81807;SDS011;71241;13.676;100.700;2023-07-22T12:11:19;11.02;;;6.88;;
81807;SDS011;71241;13.676;100.700;2023-07-22T12:14:04;11.85;;;6.55;;
81807;SDS011;71241;13.676;100.700;2023-07-22T12:16:40;10.85;;;6.03;;
81807;SDS011;71241;13.676;100.700;2023-07-22T12:19:13;10.20;;;6.40;;
81807;SDS011;71241;13.676;100.700;2023-07-22T12:21:44;11.35;;;5.95;;
81807;SDS011;71241;13.676;100.700;2023-07-22T12:24:16;11.52;;;6.70;;
81807;SDS011;71241;13.676;100.700;2023-07-22T12:26:46;11.38;;;6.25;;
81807;SDS011;71241;13.676;100.700;2023-07-22T12:29:17;8.70;;;5.22;;
81807;SDS011;71241;13.676;100.700;2023-07-22T12:31:47;9.20;;;5.60;;
81807;SDS011;71241;13.676;100.700;2023-07-22T12:34:20;12.23;;;7.70;;
81807;SDS011;71241;13.676;100.700;2023-07-22T12:36:51;9.75;;;7.32;;
81807;SDS011;71241;13.676;100.700;2023-07-22T12:39:21;9.75;;;6.78;;
81807;SDS011;71241;13.676;100.700;2023-07-22T12:41:52;9.98;;;6.18;;
81807;SDS011;71241;13.676;100.700;2023-07-22T12:44:22;10.38;;;7.38;;
81807;SDS011;71241;13.676;100.700;2023-07-22T12:46:53;12.13;;;6.38;;
81807;SDS011;71241;13.676;100.700;2023-07-22T12:49:25;11.75;;;6.97;;
81807;SDS011;71241;13.676;100.700;2023-07-22T12:51:56;7.43;;;5.53;;
81807;SDS011;71241;13.676;100.700;2023-07-22T12:54:32;13.48;;;5.47;;
81807;SDS011;71241;13.676;100.700;2023-07-22T12:57:04;16.92;;;7.25;;
81807;SDS011;71241;13.676;100.700;2023-07-22T12:59:35;16.27;;;8.50;;
81807;SDS011;71241;13.676;100.700;2023-07-22T13:02:05;8.27;;;6.80;;
81807;SDS011;71241;13.676;100.700;2023-07-22T13:04:38;13.70;;;7.78;;
81807;SDS011;71241;13.676;100.700;2023-07-22T13:07:08;16.17;;;9.15;;
81807;SDS011;71241;13.676;100.700;2023-07-22T13:09:42;11.38;;;6.47;;
81807;SDS011;71241;13.676;100.700;2023-07-22T13:12:15;9.65;;;8.32;;
81807;SDS011;71241;13.676;100.700;2023-07-22T13:14:46;13.70;;;8.93;;
81807;SDS011;71241;13.676;100.700;2023-07-22T13:17:17;14.38;;;9.02;;
81807;SDS011;71241;13.676;100.700;2023-07-22T13:19:49;16.48;;;9.70;;
81807;SDS011;71241;13.676;100.700;2023-07-22T13:22:20;15.80;;;8.77;;
81807;SDS011;71241;13.676;100.700;2023-07-22T13:24:51;11.27;;;6.72;;
81807;SDS011;71241;13.676;100.700;2023-07-22T13:27:21;11.30;;;6.90;;
81807;SDS011;71241;13.676;100.700;2023-07-22T13:29:52;9.90;;;6.53;;
81807;SDS011;71241;13.676;100.700;2023-07-22T13:32:22;14.93;;;12.02;;
81807;SDS011;71241;13.676;100.700;2023-07-22T13:34:55;16.10;;;14.13;;
81807;SDS011;71241;13.676;100.700;2023-07-22T13:37:25;13.70;;;10.88;;
81807;SDS011;71241;13.676;100.700;2023-07-22T13:39:56;12.18;;;8.20;;
81807;SDS011;71241;13.676;100.700;2023-07-22T13:42:27;12.35;;;6.22;;
81807;SDS011;71241;13.676;100.700;2023-07-22T13:44:58;13.88;;;8.95;;
81807;SDS011;71241;13.676;100.700;2023-07-22T13:47:28;12.80;;;6.82;;
81807;SDS011;71241;13.676;100.700;2023-07-22T13:50:01;11.95;;;6.53;;
81807;SDS011;71241;13.676;100.700;2023-07-22T13:52:32;8.90;;;7.45;;
81807;SDS011;71241;13.676;100.700;2023-07-22T13:55:03;9.15;;;7.43;;
81807;SDS011;71241;13.676;100.700;2023-07-22T13:57:34;9.75;;;7.60;;
81807;SDS011;71241;13.676;100.700;2023-07-22T14:00:04;7.68;;;5.82;;
81807;SDS011;71241;13.676;100.700;2023-07-22T14:02:39;14.50;;;8.00;;
81807;SDS011;71241;13.676;100.700;2023-07-22T14:05:11;9.40;;;6.75;;
81807;SDS011;71241;13.676;100.700;2023-07-22T14:07:42;11.75;;;7.45;;
81807;SDS011;71241;13.676;100.700;2023-07-22T14:10:13;9.60;;;7.25;;
81807;SDS011;71241;13.676;100.700;2023-07-22T14:12:43;13.98;;;5.70;;
81807;SDS011;71241;13.676;100.700;2023-07-22T14:15:14;10.88;;;7.72;;
81807;SDS011;71241;13.676;100.700;2023-07-22T14:17:45;8.90;;;8.00;;
81807;SDS011;71241;13.676;100.700;2023-07-22T14:20:17;11.68;;;6.97;;
81807;SDS011;71241;13.676;100.700;2023-07-22T14:22:48;13.10;;;6.75;;
81807;SDS011;71241;13.676;100.700;2023-07-22T14:25:19;13.52;;;7.55;;
81807;SDS011;71241;13.676;100.700;2023-07-22T14:27:50;11.02;;;6.95;;
81807;SDS011;71241;13.676;100.700;2023-07-22T14:30:21;10.45;;;8.85;;
81807;SDS011;71241;13.676;100.700;2023-07-22T14:32:51;15.20;;;10.40;;
81807;SDS011;71241;13.676;100.700;2023-07-22T14:35:24;10.95;;;6.22;;
81807;SDS011;71241;13.676;100.700;2023-07-22T14:38:03;15.07;;;8.00;;
81807;SDS011;71241;13.676;100.700;2023-07-22T14:40:34;10.38;;;6.55;;
81807;SDS011;71241;13.676;100.700;2023-07-22T14:43:04;13.45;;;7.53;;
81807;SDS011;71241;13.676;100.700;2023-07-22T14:45:35;11.25;;;7.55;;
81807;SDS011;71241;13.676;100.700;2023-07-22T14:48:06;12.75;;;7.00;;
81807;SDS011;71241;13.676;100.700;2023-07-22T14:50:39;11.20;;;6.80;;
81807;SDS011;71241;13.676;100.700;2023-07-22T14:53:11;16.33;;;8.63;;
81807;SDS011;71241;13.676;100.700;2023-07-22T14:55:42;16.15;;;7.53;;
81807;SDS011;71241;13.676;100.700;2023-07-22T14:58:13;11.70;;;7.72;;
81807;SDS011;71241;13.676;100.700;2023-07-22T15:00:43;17.92;;;9.23;;
81807;SDS011;71241;13.676;100.700;2023-07-22T15:03:14;11.95;;;7.68;;